Terminal Aerodrome Forecast
Issued by NWS

Home | Current Version | Previous Version | Text Only | Print | Product List | Glossary On
Versions: 1 2 3 4 5 6 7 8 9 10 11 12 13 14 15 16 17 18 19
000
FTUS43 KFGF 251721
TAFDVL
TAF
KDVL 251721Z 2518/2618 01012KT P6SM OVC020
     FM252300 04007KT P6SM BKN030
     FM260500 03004KT P6SM OVC040
     FM261200 36004KT P6SM OVC015=

USA.gov is the U.S. government's official web portal to all federal, state and local government web resources and services.